Suffield, Canada
Current Conditions -  °F | °C
As of 1:00 AM on Friday 19 Dec 2014 (Local Time) from CYXH Reporting Station
Clear Clear  
Wind Chill: 15°   Ceiling: Unl
Heat Index: 21°   Visibility: 9mi
Dew Point: 19°   Wind: 5mph
Humidity: 93%   Direction: 200°SSW
Pressure: 29.84"   Gusts: NA
Location:  50.21°N, 111.18°W
Report Text: CYXH 190800Z AUTO 20004KT 9SM CLR M06/M07 A2984 RMK SLP144
Loading
Personal Weather Stations






























Interactive Weather Map New forecast layout! Learn more

10-Day Weather Forecast

Advertisements
Track Severe Weather on mobile